Augusta, GA

3:38 PM EDT on August 22, 2019 (GMT -0400)
Summerville | | Change Station

Elev 384 ft 33.47 °N, 82.02 °W | Updated 6 seconds ago

Partly Cloudy
Partly Cloudy
93.2 °F
Feels Like 102 °F
N
0
Wind Variable Wind from WSW
Gusts 1.0 mph

Today
High -- | Low -- °F
--% Chance of Precip.
Yesterday
High -- | Low -- °F
Precip. -- in
Pressure 30.02 in
Visibility 10.0 miles
Clouds Scattered Clouds 5500 ft
Mostly Cloudy 7000 ft
Heat Index 102 °F
Dew Point 73 °F
Humidity 52%
Rainfall 0.00 in
Snow Depth Not available.
6:55 AM 8:06 PM
Waning Gibbous, 58% visible
METAR KDNL 221853Z AUTO 23006KT 10SM SCT055 BKN070 34/19 A3003 RMK AO2 SLP164 T03390194
Pressure 30.02 in
Visibility 10.0 miles
Clouds Scattered Clouds 5500 ft
Mostly Cloudy 7000 ft
Heat Index 102 °F
Dew Point 73 °F
Humidity 52%
Rainfall 0.00 in
Snow Depth Not available.
6:55 AM 8:06 PM
Waning Gibbous, 58% visible
METAR KDNL 221853Z AUTO 23006KT 10SM SCT055 BKN070 34/19 A3003 RMK AO2 SLP164 T03390194

Get Severe Weather Alerts

Thanks for signing up!

Be on the lookout for a verification email in your inbox.

You'll start receiving the daily forecast at 6 AM.

×

10-Day Weather Forecast

Almanac

Astronomy

Aug. 22, 2019 Rise Set
Actual Time
Civil Twilight
Nautical Twilight
Astronomical Twilight
Moon
Length of Visible Light
Length of Day
Tomorrow will be .
, % of the Moon is Illuminated

Today's Extremes

State Highs State Lows

Community

WunderPhotos

Category 6

Welcome to Category 6. This is the collective home for Weather Underground's featured writeups by Dr. Jeff Masters (right), Bob Henson (left), Chris Burt, and other regular contributors.

Nearby

Air Quality

  Air Quality AQ Index Pollutant
Not available.

Snow Depth

Station Depth Elevation

Earthquake Activity

City Distance Mag. Time & Date
Minimum magnitude displayed is 2.5.

Coastal Water Temperatures

Place Temperature

Stations

Nearby Weather Stations

Station Location Temp. Windchill Dew Point Humidity Wind Precip. Elev Updated Type
                   

Watches & Warnings

There are currently no watches in effect.